sensor_id;sensor_type;location;lat;lon;timestamp;P1;durP1;ratioP1;P2;durP2;ratioP2
42246;SDS011;27913;42.722;23.268;2022-12-11T00:02:19;11.98;;;4.57;;
42246;SDS011;27913;42.722;23.268;2022-12-11T00:04:44;10.27;;;5.18;;
42246;SDS011;27913;42.722;23.268;2022-12-11T00:07:10;11.82;;;4.85;;
42246;SDS011;27913;42.722;23.268;2022-12-11T00:09:35;11.18;;;5.15;;
42246;SDS011;27913;42.722;23.268;2022-12-11T00:12:01;12.02;;;5.15;;
42246;SDS011;27913;42.722;23.268;2022-12-11T00:14:27;13.18;;;5.20;;
42246;SDS011;27913;42.722;23.268;2022-12-11T00:16:53;7.70;;;2.00;;
42246;SDS011;27913;42.722;23.268;2022-12-11T00:19:19;13.07;;;6.50;;
42246;SDS011;27913;42.722;23.268;2022-12-11T00:21:45;9.23;;;3.97;;
42246;SDS011;27913;42.722;23.268;2022-12-11T00:24:11;19.10;;;7.93;;
42246;SDS011;27913;42.722;23.268;2022-12-11T00:26:37;13.25;;;6.55;;
42246;SDS011;27913;42.722;23.268;2022-12-11T00:29:02;15.85;;;6.80;;
42246;SDS011;27913;42.722;23.268;2022-12-11T00:31:28;23.10;;;7.75;;
42246;SDS011;27913;42.722;23.268;2022-12-11T00:33:54;17.70;;;7.50;;
42246;SDS011;27913;42.722;23.268;2022-12-11T00:36:21;14.35;;;5.97;;
42246;SDS011;27913;42.722;23.268;2022-12-11T00:38:48;15.38;;;7.28;;
42246;SDS011;27913;42.722;23.268;2022-12-11T00:41:15;12.20;;;5.60;;
42246;SDS011;27913;42.722;23.268;2022-12-11T00:43:41;20.42;;;9.13;;
42246;SDS011;27913;42.722;23.268;2022-12-11T00:46:07;16.05;;;7.53;;
42246;SDS011;27913;42.722;23.268;2022-12-11T00:48:33;13.85;;;5.50;;
42246;SDS011;27913;42.722;23.268;2022-12-11T00:50:59;17.55;;;7.03;;
42246;SDS011;27913;42.722;23.268;2022-12-11T00:53:24;16.48;;;6.50;;
42246;SDS011;27913;42.722;23.268;2022-12-11T00:55:50;12.98;;;5.32;;
42246;SDS011;27913;42.722;23.268;2022-12-11T00:58:16;15.73;;;6.03;;
42246;SDS011;27913;42.722;23.268;2022-12-11T01:00:42;12.52;;;5.88;;
42246;SDS011;27913;42.722;23.268;2022-12-11T01:03:12;16.25;;;6.63;;
42246;SDS011;27913;42.722;23.268;2022-12-11T01:05:38;12.45;;;5.30;;
42246;SDS011;27913;42.722;23.268;2022-12-11T01:08:04;11.80;;;5.22;;
42246;SDS011;27913;42.722;23.268;2022-12-11T01:10:30;13.68;;;6.35;;
42246;SDS011;27913;42.722;23.268;2022-12-11T01:12:58;14.68;;;5.35;;
42246;SDS011;27913;42.722;23.268;2022-12-11T01:15:26;17.10;;;4.97;;
42246;SDS011;27913;42.722;23.268;2022-12-11T01:17:54;14.65;;;5.10;;
42246;SDS011;27913;42.722;23.268;2022-12-11T01:20:20;10.77;;;4.70;;
42246;SDS011;27913;42.722;23.268;2022-12-11T01:22:46;13.07;;;4.75;;
42246;SDS011;27913;42.722;23.268;2022-12-11T01:25:15;12.15;;;4.95;;
42246;SDS011;27913;42.722;23.268;2022-12-11T01:27:41;14.30;;;5.07;;
42246;SDS011;27913;42.722;23.268;2022-12-11T01:30:07;12.23;;;4.55;;
42246;SDS011;27913;42.722;23.268;2022-12-11T01:32:33;11.18;;;4.60;;
42246;SDS011;27913;42.722;23.268;2022-12-11T01:35:01;8.52;;;3.35;;
42246;SDS011;27913;42.722;23.268;2022-12-11T01:37:29;9.65;;;4.68;;
42246;SDS011;27913;42.722;23.268;2022-12-11T01:39:55;12.93;;;4.20;;
42246;SDS011;27913;42.722;23.268;2022-12-11T01:42:20;11.45;;;4.10;;
42246;SDS011;27913;42.722;23.268;2022-12-11T01:47:11;10.30;;;3.50;;
42246;SDS011;27913;42.722;23.268;2022-12-11T01:49:37;5.82;;;1.75;;
42246;SDS011;27913;42.722;23.268;2022-12-11T01:52:11;2.00;;;0.73;;
42246;SDS011;27913;42.722;23.268;2022-12-11T01:54:40;0.43;;;0.10;;
42246;SDS011;27913;42.722;23.268;2022-12-11T01:57:07;3.30;;;0.20;;
42246;SDS011;27913;42.722;23.268;2022-12-11T01:59:36;0.05;;;0.00;;
42246;SDS011;27913;42.722;23.268;2022-12-11T02:02:18;0.43;;;0.10;;
42246;SDS011;27913;42.722;23.268;2022-12-11T02:04:47;0.60;;;0.13;;
42246;SDS011;27913;42.722;23.268;2022-12-11T02:07:13;1.25;;;0.47;;
42246;SDS011;27913;42.722;23.268;2022-12-11T02:09:40;3.72;;;0.25;;
42246;SDS011;27913;42.722;23.268;2022-12-11T02:20:42;3.05;;;0.40;;
42246;SDS011;27913;42.722;23.268;2022-12-11T02:28:45;0.00;;;0.00;;
42246;SDS011;27913;42.722;23.268;2022-12-11T02:34:07;1.88;;;0.10;;
42246;SDS011;27913;42.722;23.268;2022-12-11T02:36:36;0.40;;;0.20;;
42246;SDS011;27913;42.722;23.268;2022-12-11T02:39:06;0.40;;;0.10;;
42246;SDS011;27913;42.722;23.268;2022-12-11T02:41:35;2.03;;;0.45;;
42246;SDS011;27913;42.722;23.268;2022-12-11T02:44:01;3.30;;;0.43;;
42246;SDS011;27913;42.722;23.268;2022-12-11T02:46:29;1.98;;;0.82;;
42246;SDS011;27913;42.722;23.268;2022-12-11T02:48:57;0.77;;;0.30;;
42246;SDS011;27913;42.722;23.268;2022-12-11T02:51:27;1.50;;;0.52;;
42246;SDS011;27913;42.722;23.268;2022-12-11T02:53:58;1.30;;;0.45;;
42246;SDS011;27913;42.722;23.268;2022-12-11T02:56:35;2.17;;;0.63;;
42246;SDS011;27913;42.722;23.268;2022-12-11T02:59:43;0.68;;;0.38;;
42246;SDS011;27913;42.722;23.268;2022-12-11T03:02:10;2.15;;;0.47;;
42246;SDS011;27913;42.722;23.268;2022-12-11T03:04:37;1.63;;;0.32;;
42246;SDS011;27913;42.722;23.268;2022-12-11T03:07:07;2.08;;;0.30;;
42246;SDS011;27913;42.722;23.268;2022-12-11T03:09:38;0.52;;;0.22;;
42246;SDS011;27913;42.722;23.268;2022-12-11T03:12:06;2.30;;;0.40;;
42246;SDS011;27913;42.722;23.268;2022-12-11T03:14:34;2.30;;;0.63;;
42246;SDS011;27913;42.722;23.268;2022-12-11T03:17:20;0.17;;;0.13;;
42246;SDS011;27913;42.722;23.268;2022-12-11T03:22:39;0.55;;;0.20;;
42246;SDS011;27913;42.722;23.268;2022-12-11T03:25:07;0.70;;;0.22;;
42246;SDS011;27913;42.722;23.268;2022-12-11T03:30:45;1.17;;;0.30;;
42246;SDS011;27913;42.722;23.268;2022-12-11T03:33:14;1.67;;;0.30;;
42246;SDS011;27913;42.722;23.268;2022-12-11T03:35:51;0.32;;;0.20;;
42246;SDS011;27913;42.722;23.268;2022-12-11T03:38:30;0.90;;;0.30;;
42246;SDS011;27913;42.722;23.268;2022-12-11T03:40:59;2.15;;;0.20;;
42246;SDS011;27913;42.722;23.268;2022-12-11T03:43:27;2.58;;;0.45;;
42246;SDS011;27913;42.722;23.268;2022-12-11T03:45:56;1.80;;;0.30;;
42246;SDS011;27913;42.722;23.268;2022-12-11T03:48:24;4.63;;;0.73;;
42246;SDS011;27913;42.722;23.268;2022-12-11T03:50:54;2.40;;;0.40;;
42246;SDS011;27913;42.722;23.268;2022-12-11T03:53:22;2.15;;;0.73;;
42246;SDS011;27913;42.722;23.268;2022-12-11T03:55:51;1.25;;;0.30;;
42246;SDS011;27913;42.722;23.268;2022-12-11T03:58:18;1.30;;;0.50;;
42246;SDS011;27913;42.722;23.268;2022-12-11T04:00:43;0.90;;;0.45;;
42246;SDS011;27913;42.722;23.268;2022-12-11T04:03:09;0.60;;;0.30;;
42246;SDS011;27913;42.722;23.268;2022-12-11T04:05:42;3.05;;;0.60;;
42246;SDS011;27913;42.722;23.268;2022-12-11T04:08:09;2.30;;;0.40;;
42246;SDS011;27913;42.722;23.268;2022-12-11T04:10:35;4.28;;;0.55;;
42246;SDS011;27913;42.722;23.268;2022-12-11T04:13:00;2.00;;;0.55;;
42246;SDS011;27913;42.722;23.268;2022-12-11T04:15:26;2.03;;;0.40;;
42246;SDS011;27913;42.722;23.268;2022-12-11T04:17:51;0.90;;;0.30;;
42246;SDS011;27913;42.722;23.268;2022-12-11T04:20:36;2.92;;;0.63;;
42246;SDS011;27913;42.722;23.268;2022-12-11T04:23:20;0.63;;;0.20;;
42246;SDS011;27913;42.722;23.268;2022-12-11T04:26:08;2.92;;;0.60;;
42246;SDS011;27913;42.722;23.268;2022-12-11T04:28:36;5.28;;;0.60;;
42246;SDS011;27913;42.722;23.268;2022-12-11T04:31:02;2.78;;;0.57;;
42246;SDS011;27913;42.722;23.268;2022-12-11T04:33:28;2.50;;;0.65;;
42246;SDS011;27913;42.722;23.268;2022-12-11T04:35:56;1.90;;;0.50;;
42246;SDS011;27913;42.722;23.268;2022-12-11T04:38:22;1.83;;;0.70;;
42246;SDS011;27913;42.722;23.268;2022-12-11T04:40:47;2.00;;;0.47;;
42246;SDS011;27913;42.722;23.268;2022-12-11T04:43:13;3.05;;;0.68;;
42246;SDS011;27913;42.722;23.268;2022-12-11T04:45:38;1.52;;;0.70;;
42246;SDS011;27913;42.722;23.268;2022-12-11T04:48:04;2.40;;;0.40;;
42246;SDS011;27913;42.722;23.268;2022-12-11T04:50:29;1.77;;;0.75;;
42246;SDS011;27913;42.722;23.268;2022-12-11T04:52:55;3.33;;;0.80;;
42246;SDS011;27913;42.722;23.268;2022-12-11T04:55:21;4.65;;;0.60;;
42246;SDS011;27913;42.722;23.268;2022-12-11T04:57:47;6.60;;;1.30;;
42246;SDS011;27913;42.722;23.268;2022-12-11T05:00:13;3.05;;;0.70;;
42246;SDS011;27913;42.722;23.268;2022-12-11T05:02:39;2.00;;;0.40;;
42246;SDS011;27913;42.722;23.268;2022-12-11T05:05:07;3.63;;;0.70;;
42246;SDS011;27913;42.722;23.268;2022-12-11T05:07:34;2.65;;;0.50;;
42246;SDS011;27913;42.722;23.268;2022-12-11T05:10:00;3.22;;;0.60;;
42246;SDS011;27913;42.722;23.268;2022-12-11T05:12:26;3.13;;;0.80;;
42246;SDS011;27913;42.722;23.268;2022-12-11T05:14:52;0.90;;;0.30;;
42246;SDS011;27913;42.722;23.268;2022-12-11T05:17:18;3.30;;;0.73;;
42246;SDS011;27913;42.722;23.268;2022-12-11T05:19:48;4.55;;;0.80;;
42246;SDS011;27913;42.722;23.268;2022-12-11T05:22:15;1.87;;;0.50;;
42246;SDS011;27913;42.722;23.268;2022-12-11T05:24:42;2.03;;;0.70;;
42246;SDS011;27913;42.722;23.268;2022-12-11T05:27:08;5.15;;;0.98;;
42246;SDS011;27913;42.722;23.268;2022-12-11T05:29:35;5.00;;;1.00;;
42246;SDS011;27913;42.722;23.268;2022-12-11T05:32:01;4.85;;;0.90;;
42246;SDS011;27913;42.722;23.268;2022-12-11T05:34:26;7.35;;;1.25;;
42246;SDS011;27913;42.722;23.268;2022-12-11T05:36:52;4.07;;;0.93;;
42246;SDS011;27913;42.722;23.268;2022-12-11T05:39:18;1.98;;;0.65;;
42246;SDS011;27913;42.722;23.268;2022-12-11T05:41:43;5.20;;;1.05;;
42246;SDS011;27913;42.722;23.268;2022-12-11T05:44:12;6.03;;;1.00;;
42246;SDS011;27913;42.722;23.268;2022-12-11T05:46:37;5.32;;;0.65;;
42246;SDS011;27913;42.722;23.268;2022-12-11T05:49:04;7.85;;;1.30;;
42246;SDS011;27913;42.722;23.268;2022-12-11T05:51:29;12.25;;;1.25;;
42246;SDS011;27913;42.722;23.268;2022-12-11T05:53:58;4.63;;;0.95;;
42246;SDS011;27913;42.722;23.268;2022-12-11T05:56:25;3.30;;;0.70;;
42246;SDS011;27913;42.722;23.268;2022-12-11T05:58:52;7.03;;;1.17;;
42246;SDS011;27913;42.722;23.268;2022-12-11T06:03:46;2.00;;;0.85;;
42246;SDS011;27913;42.722;23.268;2022-12-11T06:06:12;8.60;;;1.00;;
42246;SDS011;27913;42.722;23.268;2022-12-11T06:08:38;3.85;;;0.73;;
42246;SDS011;27913;42.722;23.268;2022-12-11T06:11:04;6.20;;;1.30;;
42246;SDS011;27913;42.722;23.268;2022-12-11T06:13:29;5.40;;;1.05;;
42246;SDS011;27913;42.722;23.268;2022-12-11T06:16:02;7.53;;;0.80;;
42246;SDS011;27913;42.722;23.268;2022-12-11T06:18:29;4.20;;;0.90;;
42246;SDS011;27913;42.722;23.268;2022-12-11T06:20:55;6.70;;;0.98;;
42246;SDS011;27913;42.722;23.268;2022-12-11T06:23:20;5.68;;;0.80;;
42246;SDS011;27913;42.722;23.268;2022-12-11T06:25:46;6.68;;;1.00;;
42246;SDS011;27913;42.722;23.268;2022-12-11T06:28:11;5.07;;;1.15;;
42246;SDS011;27913;42.722;23.268;2022-12-11T06:30:37;7.57;;;1.55;;
42246;SDS011;27913;42.722;23.268;2022-12-11T06:33:02;10.18;;;1.40;;
42246;SDS011;27913;42.722;23.268;2022-12-11T06:35:28;3.70;;;0.80;;
42246;SDS011;27913;42.722;23.268;2022-12-11T06:37:54;3.40;;;0.68;;
42246;SDS011;27913;42.722;23.268;2022-12-11T06:40:20;9.57;;;1.45;;
42246;SDS011;27913;42.722;23.268;2022-12-11T06:42:45;7.15;;;1.13;;
42246;SDS011;27913;42.722;23.268;2022-12-11T06:45:11;7.78;;;1.30;;
42246;SDS011;27913;42.722;23.268;2022-12-11T06:47:36;7.72;;;1.40;;
42246;SDS011;27913;42.722;23.268;2022-12-11T06:50:02;3.45;;;0.60;;
42246;SDS011;27913;42.722;23.268;2022-12-11T06:52:28;2.42;;;0.70;;
42246;SDS011;27913;42.722;23.268;2022-12-11T06:54:54;5.70;;;1.00;;
42246;SDS011;27913;42.722;23.268;2022-12-11T06:57:19;6.18;;;1.33;;
42246;SDS011;27913;42.722;23.268;2022-12-11T06:59:45;1.40;;;0.50;;
42246;SDS011;27913;42.722;23.268;2022-12-11T07:02:14;5.13;;;0.50;;
42246;SDS011;27913;42.722;23.268;2022-12-11T07:04:41;7.90;;;0.85;;
42246;SDS011;27913;42.722;23.268;2022-12-11T07:07:07;3.38;;;0.63;;
42246;SDS011;27913;42.722;23.268;2022-12-11T07:09:34;5.78;;;0.82;;
42246;SDS011;27913;42.722;23.268;2022-12-11T07:12:02;6.15;;;1.20;;
42246;SDS011;27913;42.722;23.268;2022-12-11T07:14:28;6.53;;;1.00;;
42246;SDS011;27913;42.722;23.268;2022-12-11T07:16:54;3.20;;;0.70;;
42246;SDS011;27913;42.722;23.268;2022-12-11T07:19:21;2.78;;;0.88;;
42246;SDS011;27913;42.722;23.268;2022-12-11T07:21:46;6.47;;;1.23;;
42246;SDS011;27913;42.722;23.268;2022-12-11T07:24:12;5.68;;;0.80;;
42246;SDS011;27913;42.722;23.268;2022-12-11T07:26:38;4.70;;;0.82;;
42246;SDS011;27913;42.722;23.268;2022-12-11T07:29:03;4.78;;;1.10;;
42246;SDS011;27913;42.722;23.268;2022-12-11T07:31:29;5.78;;;0.90;;
42246;SDS011;27913;42.722;23.268;2022-12-11T07:33:59;8.73;;;1.45;;
42246;SDS011;27913;42.722;23.268;2022-12-11T07:36:26;6.97;;;1.20;;
42246;SDS011;27913;42.722;23.268;2022-12-11T07:38:53;3.00;;;0.82;;
42246;SDS011;27913;42.722;23.268;2022-12-11T07:41:18;5.72;;;0.90;;
42246;SDS011;27913;42.722;23.268;2022-12-11T07:43:44;6.85;;;1.05;;
42246;SDS011;27913;42.722;23.268;2022-12-11T07:46:11;9.25;;;1.02;;
42246;SDS011;27913;42.722;23.268;2022-12-11T07:48:39;3.42;;;1.00;;
42246;SDS011;27913;42.722;23.268;2022-12-11T07:51:07;3.70;;;0.90;;
42246;SDS011;27913;42.722;23.268;2022-12-11T07:53:33;3.90;;;1.02;;
42246;SDS011;27913;42.722;23.268;2022-12-11T07:55:59;3.55;;;0.93;;
42246;SDS011;27913;42.722;23.268;2022-12-11T07:58:24;4.82;;;1.13;;
42246;SDS011;27913;42.722;23.268;2022-12-11T08:00:50;4.35;;;1.10;;
42246;SDS011;27913;42.722;23.268;2022-12-11T08:03:16;2.42;;;0.75;;
42246;SDS011;27913;42.722;23.268;2022-12-11T08:05:46;2.28;;;0.65;;
42246;SDS011;27913;42.722;23.268;2022-12-11T08:08:13;3.30;;;0.73;;
42246;SDS011;27913;42.722;23.268;2022-12-11T08:10:39;3.05;;;0.98;;
42246;SDS011;27913;42.722;23.268;2022-12-11T08:13:04;3.95;;;0.95;;
42246;SDS011;27913;42.722;23.268;2022-12-11T08:15:30;6.55;;;1.00;;
42246;SDS011;27913;42.722;23.268;2022-12-11T08:17:55;4.22;;;1.08;;
42246;SDS011;27913;42.722;23.268;2022-12-11T08:20:20;5.38;;;1.00;;
42246;SDS011;27913;42.722;23.268;2022-12-11T08:22:46;4.15;;;0.70;;
42246;SDS011;27913;42.722;23.268;2022-12-11T08:25:11;3.97;;;0.98;;
42246;SDS011;27913;42.722;23.268;2022-12-11T08:27:37;5.93;;;1.60;;
42246;SDS011;27913;42.722;23.268;2022-12-11T08:30:02;6.80;;;0.90;;
42246;SDS011;27913;42.722;23.268;2022-12-11T08:32:28;3.50;;;0.70;;
42246;SDS011;27913;42.722;23.268;2022-12-11T08:34:54;2.42;;;0.50;;
42246;SDS011;27913;42.722;23.268;2022-12-11T08:37:19;2.15;;;0.68;;
42246;SDS011;27913;42.722;23.268;2022-12-11T08:39:45;4.20;;;0.68;;
42246;SDS011;27913;42.722;23.268;2022-12-11T08:42:11;5.15;;;0.88;;
42246;SDS011;27913;42.722;23.268;2022-12-11T08:44:36;1.65;;;0.40;;
42246;SDS011;27913;42.722;23.268;2022-12-11T08:47:02;2.28;;;0.80;;
42246;SDS011;27913;42.722;23.268;2022-12-11T08:49:27;1.77;;;0.65;;
42246;SDS011;27913;42.722;23.268;2022-12-11T08:51:53;8.38;;;0.80;;
42246;SDS011;27913;42.722;23.268;2022-12-11T08:54:18;1.98;;;0.70;;
42246;SDS011;27913;42.722;23.268;2022-12-11T08:56:44;3.08;;;0.77;;
42246;SDS011;27913;42.722;23.268;2022-12-11T08:59:09;3.65;;;0.60;;
42246;SDS011;27913;42.722;23.268;2022-12-11T09:01:35;1.17;;;0.45;;
42246;SDS011;27913;42.722;23.268;2022-12-11T09:04:00;3.85;;;0.57;;
42246;SDS011;27913;42.722;23.268;2022-12-11T09:06:27;3.88;;;0.90;;
42246;SDS011;27913;42.722;23.268;2022-12-11T09:08:53;1.13;;;0.63;;
42246;SDS011;27913;42.722;23.268;2022-12-11T09:11:21;3.00;;;0.80;;
42246;SDS011;27913;42.722;23.268;2022-12-11T09:13:48;3.00;;;0.82;;
42246;SDS011;27913;42.722;23.268;2022-12-11T09:16:15;2.92;;;0.80;;
42246;SDS011;27913;42.722;23.268;2022-12-11T09:18:42;5.57;;;1.27;;
42246;SDS011;27913;42.722;23.268;2022-12-11T09:21:10;5.97;;;1.10;;
42246;SDS011;27913;42.722;23.268;2022-12-11T09:23:38;2.55;;;0.63;;
42246;SDS011;27913;42.722;23.268;2022-12-11T09:26:07;2.85;;;0.75;;
42246;SDS011;27913;42.722;23.268;2022-12-11T09:28:37;2.20;;;0.68;;
42246;SDS011;27913;42.722;23.268;2022-12-11T09:31:12;5.00;;;0.88;;
42246;SDS011;27913;42.722;23.268;2022-12-11T09:33:44;2.75;;;1.10;;
42246;SDS011;27913;42.722;23.268;2022-12-11T09:36:10;3.00;;;1.00;;
42246;SDS011;27913;42.722;23.268;2022-12-11T09:38:36;6.70;;;1.42;;
42246;SDS011;27913;42.722;23.268;2022-12-11T09:46:33;5.15;;;1.08;;
42246;SDS011;27913;42.722;23.268;2022-12-11T09:49:01;3.25;;;1.00;;
42246;SDS011;27913;42.722;23.268;2022-12-11T09:51:35;2.95;;;0.75;;
42246;SDS011;27913;42.722;23.268;2022-12-11T09:54:11;4.63;;;0.80;;
42246;SDS011;27913;42.722;23.268;2022-12-11T09:56:41;4.00;;;0.80;;
42246;SDS011;27913;42.722;23.268;2022-12-11T09:59:46;4.32;;;1.10;;
42246;SDS011;27913;42.722;23.268;2022-12-11T10:05:01;5.72;;;0.73;;
42246;SDS011;27913;42.722;23.268;2022-12-11T10:07:42;3.08;;;0.80;;
42246;SDS011;27913;42.722;23.268;2022-12-11T10:15:52;3.38;;;0.75;;
42246;SDS011;27913;42.722;23.268;2022-12-11T10:18:24;1.88;;;0.60;;
42246;SDS011;27913;42.722;23.268;2022-12-11T10:20:52;2.42;;;0.80;;
42246;SDS011;27913;42.722;23.268;2022-12-11T10:23:26;1.05;;;0.40;;
42246;SDS011;27913;42.722;23.268;2022-12-11T10:26:21;1.55;;;0.77;;
42246;SDS011;27913;42.722;23.268;2022-12-11T10:28:46;1.25;;;0.63;;
42246;SDS011;27913;42.722;23.268;2022-12-11T10:34:12;1.10;;;0.40;;
42246;SDS011;27913;42.722;23.268;2022-12-11T10:36:44;2.33;;;0.47;;
42246;SDS011;27913;42.722;23.268;2022-12-11T10:39:18;1.27;;;0.50;;
42246;SDS011;27913;42.722;23.268;2022-12-11T10:41:46;4.15;;;0.60;;
42246;SDS011;27913;42.722;23.268;2022-12-11T10:44:18;1.95;;;0.68;;
42246;SDS011;27913;42.722;23.268;2022-12-11T10:46:46;0.95;;;0.50;;
42246;SDS011;27913;42.722;23.268;2022-12-11T10:49:26;2.65;;;0.80;;
42246;SDS011;27913;42.722;23.268;2022-12-11T10:51:54;4.15;;;0.93;;
42246;SDS011;27913;42.722;23.268;2022-12-11T10:54:37;4.30;;;1.02;;
42246;SDS011;27913;42.722;23.268;2022-12-11T10:57:06;2.53;;;0.60;;
42246;SDS011;27913;42.722;23.268;2022-12-11T10:59:45;1.63;;;0.68;;
42246;SDS011;27913;42.722;23.268;2022-12-11T11:04:47;5.10;;;0.88;;
42246;SDS011;27913;42.722;23.268;2022-12-11T11:07:15;2.88;;;0.75;;
42246;SDS011;27913;42.722;23.268;2022-12-11T11:09:50;3.85;;;0.80;;
42246;SDS011;27913;42.722;23.268;2022-12-11T11:12:28;4.30;;;0.95;;
42246;SDS011;27913;42.722;23.268;2022-12-11T11:15:00;2.40;;;0.60;;
42246;SDS011;27913;42.722;23.268;2022-12-11T11:17:30;3.25;;;0.75;;
42246;SDS011;27913;42.722;23.268;2022-12-11T11:19:58;1.73;;;0.50;;
42246;SDS011;27913;42.722;23.268;2022-12-11T11:22:29;1.25;;;0.52;;
42246;SDS011;27913;42.722;23.268;2022-12-11T11:24:56;1.80;;;0.68;;
42246;SDS011;27913;42.722;23.268;2022-12-11T11:29:53;3.10;;;0.70;;
42246;SDS011;27913;42.722;23.268;2022-12-11T11:32:33;1.90;;;0.85;;
42246;SDS011;27913;42.722;23.268;2022-12-11T11:37:38;2.30;;;0.95;;
42246;SDS011;27913;42.722;23.268;2022-12-11T11:40:27;2.03;;;0.63;;
42246;SDS011;27913;42.722;23.268;2022-12-11T11:43:04;3.38;;;1.25;;
42246;SDS011;27913;42.722;23.268;2022-12-11T11:45:50;3.25;;;1.13;;
42246;SDS011;27913;42.722;23.268;2022-12-11T11:50:55;3.15;;;0.95;;
42246;SDS011;27913;42.722;23.268;2022-12-11T11:58:52;3.95;;;1.10;;
42246;SDS011;27913;42.722;23.268;2022-12-11T12:01:26;4.43;;;0.68;;
42246;SDS011;27913;42.722;23.268;2022-12-11T12:03:52;0.82;;;0.38;;
42246;SDS011;27913;42.722;23.268;2022-12-11T12:06:56;1.42;;;0.65;;
42246;SDS011;27913;42.722;23.268;2022-12-11T12:09:45;1.80;;;0.63;;
42246;SDS011;27913;42.722;23.268;2022-12-11T12:34:09;3.30;;;0.93;;
42246;SDS011;27913;42.722;23.268;2022-12-11T12:36:50;4.28;;;1.15;;
42246;SDS011;27913;42.722;23.268;2022-12-11T12:39:33;1.80;;;0.65;;
42246;SDS011;27913;42.722;23.268;2022-12-11T12:42:33;2.00;;;0.77;;
42246;SDS011;27913;42.722;23.268;2022-12-11T12:47:38;1.80;;;0.50;;
42246;SDS011;27913;42.722;23.268;2022-12-11T12:50:10;2.65;;;0.70;;
42246;SDS011;27913;42.722;23.268;2022-12-11T12:52:39;3.67;;;1.50;;
42246;SDS011;27913;42.722;23.268;2022-12-11T12:55:17;1.88;;;0.70;;
42246;SDS011;27913;42.722;23.268;2022-12-11T12:57:50;2.97;;;1.08;;
42246;SDS011;27913;42.722;23.268;2022-12-11T13:02:51;3.22;;;0.90;;
42246;SDS011;27913;42.722;23.268;2022-12-11T13:05:21;4.80;;;1.50;;
42246;SDS011;27913;42.722;23.268;2022-12-11T13:07:51;2.72;;;0.98;;
42246;SDS011;27913;42.722;23.268;2022-12-11T13:12:49;2.20;;;0.52;;
42246;SDS011;27913;42.722;23.268;2022-12-11T13:15:24;7.43;;;0.88;;
42246;SDS011;27913;42.722;23.268;2022-12-11T13:17:52;2.60;;;0.50;;
42246;SDS011;27913;42.722;23.268;2022-12-11T13:20:18;5.55;;;1.27;;
42246;SDS011;27913;42.722;23.268;2022-12-11T13:23:09;2.13;;;0.60;;
42246;SDS011;27913;42.722;23.268;2022-12-11T13:25:45;1.30;;;0.50;;
42246;SDS011;27913;42.722;23.268;2022-12-11T13:28:21;2.38;;;0.98;;
42246;SDS011;27913;42.722;23.268;2022-12-11T13:30:59;2.72;;;0.70;;
42246;SDS011;27913;42.722;23.268;2022-12-11T13:33:28;7.45;;;2.33;;
42246;SDS011;27913;42.722;23.268;2022-12-11T13:36:03;3.42;;;0.95;;
42246;SDS011;27913;42.722;23.268;2022-12-11T13:38:46;1.88;;;0.77;;
42246;SDS011;27913;42.722;23.268;2022-12-11T13:41:14;14.43;;;3.28;;
42246;SDS011;27913;42.722;23.268;2022-12-11T13:43:43;4.22;;;1.75;;
42246;SDS011;27913;42.722;23.268;2022-12-11T13:46:11;5.25;;;0.82;;
42246;SDS011;27913;42.722;23.268;2022-12-11T13:51:15;4.03;;;1.40;;
42246;SDS011;27913;42.722;23.268;2022-12-11T13:53:45;3.33;;;0.88;;
42246;SDS011;27913;42.722;23.268;2022-12-11T13:56:18;1.30;;;0.47;;
42246;SDS011;27913;42.722;23.268;2022-12-11T13:58:45;3.05;;;0.95;;
42246;SDS011;27913;42.722;23.268;2022-12-11T14:01:16;2.15;;;0.80;;
42246;SDS011;27913;42.722;23.268;2022-12-11T14:03:56;2.55;;;0.90;;
42246;SDS011;27913;42.722;23.268;2022-12-11T14:06:23;2.33;;;0.98;;
42246;SDS011;27913;42.722;23.268;2022-12-11T14:08:52;2.53;;;0.80;;
42246;SDS011;27913;42.722;23.268;2022-12-11T14:11:39;3.78;;;0.52;;
42246;SDS011;27913;42.722;23.268;2022-12-11T14:16:50;2.78;;;0.80;;
42246;SDS011;27913;42.722;23.268;2022-12-11T14:19:19;2.05;;;0.95;;
42246;SDS011;27913;42.722;23.268;2022-12-11T14:21:59;3.17;;;0.88;;
42246;SDS011;27913;42.722;23.268;2022-12-11T14:24:27;0.73;;;0.10;;
42246;SDS011;27913;42.722;23.268;2022-12-11T14:26:54;8.00;;;2.20;;
42246;SDS011;27913;42.722;23.268;2022-12-11T14:29:25;0.80;;;0.40;;
42246;SDS011;27913;42.722;23.268;2022-12-11T14:31:52;1.85;;;0.80;;
42246;SDS011;27913;42.722;23.268;2022-12-11T14:34:40;2.25;;;0.65;;
42246;SDS011;27913;42.722;23.268;2022-12-11T14:37:09;2.83;;;0.88;;
42246;SDS011;27913;42.722;23.268;2022-12-11T14:40:00;1.85;;;0.57;;
42246;SDS011;27913;42.722;23.268;2022-12-11T14:42:31;2.33;;;0.80;;
42246;SDS011;27913;42.722;23.268;2022-12-11T14:45:06;1.55;;;0.30;;
42246;SDS011;27913;42.722;23.268;2022-12-11T14:47:41;0.43;;;0.20;;
42246;SDS011;27913;42.722;23.268;2022-12-11T14:50:12;1.42;;;0.40;;
42246;SDS011;27913;42.722;23.268;2022-12-11T14:52:52;1.15;;;0.40;;
42246;SDS011;27913;42.722;23.268;2022-12-11T14:55:24;3.05;;;0.75;;
42246;SDS011;27913;42.722;23.268;2022-12-11T14:57:56;1.00;;;0.50;;
42246;SDS011;27913;42.722;23.268;2022-12-11T15:00:31;1.58;;;0.60;;
42246;SDS011;27913;42.722;23.268;2022-12-11T15:05:28;1.25;;;0.30;;
42246;SDS011;27913;42.722;23.268;2022-12-11T15:08:17;0.93;;;0.40;;
42246;SDS011;27913;42.722;23.268;2022-12-11T15:13:29;1.33;;;0.50;;
42246;SDS011;27913;42.722;23.268;2022-12-11T15:15:55;4.53;;;0.60;;
42246;SDS011;27913;42.722;23.268;2022-12-11T15:20:51;0.00;;;0.00;;
42246;SDS011;27913;42.722;23.268;2022-12-11T15:25:51;0.00;;;0.00;;
42246;SDS011;27913;42.722;23.268;2022-12-11T15:28:37;0.00;;;0.00;;
42246;SDS011;27913;42.722;23.268;2022-12-11T15:31:04;0.08;;;0.05;;
42246;SDS011;27913;42.722;23.268;2022-12-11T15:33:50;0.00;;;0.00;;
42246;SDS011;27913;42.722;23.268;2022-12-11T15:38:50;0.00;;;0.00;;
42246;SDS011;27913;42.722;23.268;2022-12-11T15:41:18;0.00;;;0.00;;
42246;SDS011;27913;42.722;23.268;2022-12-11T15:43:50;0.00;;;0.00;;
42246;SDS011;27913;42.722;23.268;2022-12-11T15:46:18;0.00;;;0.00;;
42246;SDS011;27913;42.722;23.268;2022-12-11T15:48:44;0.00;;;0.00;;
42246;SDS011;27913;42.722;23.268;2022-12-11T15:51:09;0.20;;;0.20;;
42246;SDS011;27913;42.722;23.268;2022-12-11T15:53:35;0.00;;;0.00;;
42246;SDS011;27913;42.722;23.268;2022-12-11T15:56:01;0.00;;;0.00;;
42246;SDS011;27913;42.722;23.268;2022-12-11T15:58:26;0.00;;;0.00;;
42246;SDS011;27913;42.722;23.268;2022-12-11T16:00:52;0.00;;;0.00;;
42246;SDS011;27913;42.722;23.268;2022-12-11T16:03:19;0.00;;;0.00;;
42246;SDS011;27913;42.722;23.268;2022-12-11T16:05:47;0.00;;;0.00;;
42246;SDS011;27913;42.722;23.268;2022-12-11T16:08:14;0.00;;;0.00;;
42246;SDS011;27913;42.722;23.268;2022-12-11T16:10:41;0.00;;;0.00;;
42246;SDS011;27913;42.722;23.268;2022-12-11T16:13:08;0.28;;;0.28;;
42246;SDS011;27913;42.722;23.268;2022-12-11T16:15:39;0.00;;;0.00;;
42246;SDS011;27913;42.722;23.268;2022-12-11T16:18:08;0.00;;;0.00;;
42246;SDS011;27913;42.722;23.268;2022-12-11T16:20:36;0.00;;;0.00;;
42246;SDS011;27913;42.722;23.268;2022-12-11T16:23:03;0.00;;;0.00;;
42246;SDS011;27913;42.722;23.268;2022-12-11T16:25:29;0.00;;;0.00;;
42246;SDS011;27913;42.722;23.268;2022-12-11T16:27:56;0.00;;;0.00;;
42246;SDS011;27913;42.722;23.268;2022-12-11T16:30:23;0.00;;;0.00;;
42246;SDS011;27913;42.722;23.268;2022-12-11T16:32:49;0.00;;;0.00;;
42246;SDS011;27913;42.722;23.268;2022-12-11T16:35:15;0.00;;;0.00;;